SBSL/SLZ METAR and TAF weather

Enter ICAO airport designator
Station Type Date Time Source
SBSL METAR 2018/12/10 08:00 UTC NOAA

SBSL 100800Z 16004KT 9999 SCT015 24/24 Q1014


Station Type Date Time Source
SBSL Decoded METAR 2018/12/10 08:00 UTC NOAA

Sao Luiz Aeroporto , Brazil (SBSL) 02-36S 044-14W 53M
Dec 10, 2018 - 03:00 AM EST / 2018.12.10 0800 UTC
Wind: from the SSE (160 degrees) at 5 MPH (4 KT):0
Visibility: greater than 7 mile(s):0
Sky conditions: partly cloudy
Temperature: 75 F (24 C)
Dew Point: 75 F (24 C)
Relative Humidity: 100%
Pressure (altimeter): 29.94 in. Hg (1014 hPa)
ob: SBSL 100800Z 16004KT 9999 SCT015 24/24 Q1014
cycle: 8

Station Type Date Time Source
SBSL TAF 2018/12/10 06:33 UTC NOAA

TAF SBSL 100400Z 1006/1106 06005KT 9999 SCT015 TN24/1008Z TX29/1016Z
BECMG 1010/1012 03008KT
BECMG 1015/1017 36008KT SCT020 FEW025TCU PROB30 1018/1020 TS BKN020 FEW025CB
BECMG 1021/1023 06005KT FEW017
RMK PEH


Example: see airport list